Portada
METAR-TAF:

METAR-TAF

Aeropuertos :

Baréin, Bahréin

Aeropuerto Internacional de Baréin

latitud: 26-16N, longitud: 050-39E, altitud: 2 m

Observación

El informe se hizo hace 15 minutos, a las 00:00 UTC
Viento calma
Temperatura 31°C
Humedad 63%
Presión 1006 hPa
Visibilidad 10 km o más
sin nubes por debajo de 1500 m y sin presencia de cumulonimbus.

METAR: OBBI 260000Z 00000KT CAVOK 31/23 Q1006 NOSIG

Hora: 03:15 (00:15 UTC)

Pronóstico

El informe se hizo hace 1 hora y 15 minutos, a las 23:00 UTC
Pronóstico válido del 26 a las 00 UTC al 27 a las 06 UTC
Viento 5 kt con dirección variable
Visibilidad 10 km o más
sin nubes por debajo de 1500 m y sin presencia de cumulonimbus.

TAF: OBBI 252300Z 2600/2706 VRB05KT CAVOK

Observaciones y pronósticos meteorológicos de más de 4000 aeropuertos (mensajes METAR y TAF).

Los puntos amarillos y rojos representan las estaciones disponibles.

Ponga el ratón en el punto deseado para ver el nombre de la estación.

Haga clic para ver las observaciones y los pronósticos meteorológicos.

Para cambiar el mapa : haga clic en los botones verdes con una cruz de color negro para hacer un zoom, en el botón verde con un guión para alejar o en las flechas verdes para mapas adyacentes.


METAR-TAF: